sensor_id;sensor_type;location;lat;lon;timestamp;P1;durP1;ratioP1;P2;durP2;ratioP2
71106;SDS011;58763;47.982;11.516;2022-11-09T00:02:19;3.20;;;1.30;;
71106;SDS011;58763;47.982;11.516;2022-11-09T00:04:45;3.38;;;1.50;;
71106;SDS011;58763;47.982;11.516;2022-11-09T00:07:11;2.97;;;1.20;;
71106;SDS011;58763;47.982;11.516;2022-11-09T00:09:36;3.33;;;1.33;;
71106;SDS011;58763;47.982;11.516;2022-11-09T00:12:02;3.22;;;1.30;;
71106;SDS011;58763;47.982;11.516;2022-11-09T00:14:29;3.25;;;1.35;;
71106;SDS011;58763;47.982;11.516;2022-11-09T00:16:55;2.83;;;1.33;;
71106;SDS011;58763;47.982;11.516;2022-11-09T00:19:21;3.65;;;1.40;;
71106;SDS011;58763;47.982;11.516;2022-11-09T00:21:47;3.53;;;1.50;;
71106;SDS011;58763;47.982;11.516;2022-11-09T00:24:13;4.47;;;1.60;;
71106;SDS011;58763;47.982;11.516;2022-11-09T00:26:39;3.60;;;1.40;;
71106;SDS011;58763;47.982;11.516;2022-11-09T00:29:04;4.10;;;1.48;;
71106;SDS011;58763;47.982;11.516;2022-11-09T00:31:29;2.95;;;1.42;;
71106;SDS011;58763;47.982;11.516;2022-11-09T00:33:55;3.35;;;1.20;;
71106;SDS011;58763;47.982;11.516;2022-11-09T00:36:22;2.72;;;1.17;;
71106;SDS011;58763;47.982;11.516;2022-11-09T00:38:49;3.17;;;1.33;;
71106;SDS011;58763;47.982;11.516;2022-11-09T00:41:17;3.72;;;1.38;;
71106;SDS011;58763;47.982;11.516;2022-11-09T00:43:42;2.95;;;1.20;;
71106;SDS011;58763;47.982;11.516;2022-11-09T00:46:08;3.25;;;1.10;;
71106;SDS011;58763;47.982;11.516;2022-11-09T00:48:34;3.50;;;1.25;;
71106;SDS011;58763;47.982;11.516;2022-11-09T00:51:00;2.60;;;1.10;;
71106;SDS011;58763;47.982;11.516;2022-11-09T00:53:25;3.03;;;1.20;;
71106;SDS011;58763;47.982;11.516;2022-11-09T00:55:52;2.70;;;1.10;;
71106;SDS011;58763;47.982;11.516;2022-11-09T00:58:21;2.65;;;1.10;;
71106;SDS011;58763;47.982;11.516;2022-11-09T01:00:47;3.53;;;1.20;;
71106;SDS011;58763;47.982;11.516;2022-11-09T01:03:13;2.63;;;1.00;;
71106;SDS011;58763;47.982;11.516;2022-11-09T01:05:38;2.95;;;1.17;;
71106;SDS011;58763;47.982;11.516;2022-11-09T01:08:04;2.40;;;1.15;;
71106;SDS011;58763;47.982;11.516;2022-11-09T01:10:30;2.80;;;1.23;;
71106;SDS011;58763;47.982;11.516;2022-11-09T01:12:56;4.20;;;1.40;;
71106;SDS011;58763;47.982;11.516;2022-11-09T01:15:21;3.67;;;1.20;;
71106;SDS011;58763;47.982;11.516;2022-11-09T01:17:47;3.33;;;1.30;;
71106;SDS011;58763;47.982;11.516;2022-11-09T01:20:13;3.10;;;1.23;;
71106;SDS011;58763;47.982;11.516;2022-11-09T01:22:39;2.47;;;1.08;;
71106;SDS011;58763;47.982;11.516;2022-11-09T01:25:05;3.78;;;1.20;;
71106;SDS011;58763;47.982;11.516;2022-11-09T01:27:31;2.95;;;1.27;;
71106;SDS011;58763;47.982;11.516;2022-11-09T01:29:56;3.22;;;1.20;;
71106;SDS011;58763;47.982;11.516;2022-11-09T01:32:22;4.43;;;1.42;;
71106;SDS011;58763;47.982;11.516;2022-11-09T01:34:47;2.10;;;0.80;;
71106;SDS011;58763;47.982;11.516;2022-11-09T01:37:13;2.58;;;1.10;;
71106;SDS011;58763;47.982;11.516;2022-11-09T01:39:38;2.72;;;1.20;;
71106;SDS011;58763;47.982;11.516;2022-11-09T01:42:04;3.17;;;0.95;;
71106;SDS011;58763;47.982;11.516;2022-11-09T01:44:29;2.10;;;0.95;;
71106;SDS011;58763;47.982;11.516;2022-11-09T01:47:00;2.90;;;1.30;;
71106;SDS011;58763;47.982;11.516;2022-11-09T01:52:19;5.18;;;2.03;;
71106;SDS011;58763;47.982;11.516;2022-11-09T01:55:09;2.40;;;1.05;;
71106;SDS011;58763;47.982;11.516;2022-11-09T01:57:44;2.55;;;1.00;;
71106;SDS011;58763;47.982;11.516;2022-11-09T02:00:16;2.10;;;1.00;;
71106;SDS011;58763;47.982;11.516;2022-11-09T02:02:43;2.90;;;1.00;;
71106;SDS011;58763;47.982;11.516;2022-11-09T02:05:14;2.65;;;0.90;;
71106;SDS011;58763;47.982;11.516;2022-11-09T02:07:43;2.33;;;0.83;;
71106;SDS011;58763;47.982;11.516;2022-11-09T02:10:12;2.95;;;1.00;;
71106;SDS011;58763;47.982;11.516;2022-11-09T02:12:45;2.15;;;0.70;;
71106;SDS011;58763;47.982;11.516;2022-11-09T02:15:11;3.53;;;0.95;;
71106;SDS011;58763;47.982;11.516;2022-11-09T02:17:37;3.67;;;1.10;;
71106;SDS011;58763;47.982;11.516;2022-11-09T02:20:08;2.60;;;0.82;;
71106;SDS011;58763;47.982;11.516;2022-11-09T02:22:38;2.70;;;0.88;;
71106;SDS011;58763;47.982;11.516;2022-11-09T02:25:06;2.15;;;0.60;;
71106;SDS011;58763;47.982;11.516;2022-11-09T02:27:33;3.60;;;0.90;;
71106;SDS011;58763;47.982;11.516;2022-11-09T02:29:59;2.88;;;0.95;;
71106;SDS011;58763;47.982;11.516;2022-11-09T02:32:27;2.97;;;0.80;;
71106;SDS011;58763;47.982;11.516;2022-11-09T02:34:54;1.40;;;0.60;;
71106;SDS011;58763;47.982;11.516;2022-11-09T02:37:29;1.40;;;0.50;;
71106;SDS011;58763;47.982;11.516;2022-11-09T02:40:21;3.40;;;0.90;;
71106;SDS011;58763;47.982;11.516;2022-11-09T02:42:51;2.50;;;0.98;;
71106;SDS011;58763;47.982;11.516;2022-11-09T02:45:17;2.22;;;0.80;;
71106;SDS011;58763;47.982;11.516;2022-11-09T02:47:42;2.05;;;0.77;;
71106;SDS011;58763;47.982;11.516;2022-11-09T02:50:08;2.25;;;0.93;;
71106;SDS011;58763;47.982;11.516;2022-11-09T02:52:34;2.83;;;0.80;;
71106;SDS011;58763;47.982;11.516;2022-11-09T02:55:00;2.05;;;0.80;;
71106;SDS011;58763;47.982;11.516;2022-11-09T02:57:25;2.05;;;0.93;;
71106;SDS011;58763;47.982;11.516;2022-11-09T02:59:51;2.53;;;0.88;;
71106;SDS011;58763;47.982;11.516;2022-11-09T03:02:18;2.28;;;0.80;;
71106;SDS011;58763;47.982;11.516;2022-11-09T03:04:43;2.05;;;0.77;;
71106;SDS011;58763;47.982;11.516;2022-11-09T03:07:09;2.90;;;1.00;;
71106;SDS011;58763;47.982;11.516;2022-11-09T03:09:34;2.13;;;0.80;;
71106;SDS011;58763;47.982;11.516;2022-11-09T03:12:01;2.35;;;1.00;;
71106;SDS011;58763;47.982;11.516;2022-11-09T03:14:49;2.15;;;0.90;;
71106;SDS011;58763;47.982;11.516;2022-11-09T03:17:14;3.05;;;0.80;;
71106;SDS011;58763;47.982;11.516;2022-11-09T03:19:41;2.50;;;1.05;;
71106;SDS011;58763;47.982;11.516;2022-11-09T03:22:07;2.38;;;0.93;;
71106;SDS011;58763;47.982;11.516;2022-11-09T03:24:33;2.35;;;1.00;;
71106;SDS011;58763;47.982;11.516;2022-11-09T03:26:58;4.20;;;1.13;;
71106;SDS011;58763;47.982;11.516;2022-11-09T03:29:24;1.95;;;0.90;;
71106;SDS011;58763;47.982;11.516;2022-11-09T03:31:50;3.53;;;0.90;;
71106;SDS011;58763;47.982;11.516;2022-11-09T03:34:15;2.28;;;0.88;;
71106;SDS011;58763;47.982;11.516;2022-11-09T03:36:41;1.73;;;0.70;;
71106;SDS011;58763;47.982;11.516;2022-11-09T03:39:06;3.70;;;0.85;;
71106;SDS011;58763;47.982;11.516;2022-11-09T03:41:32;2.63;;;1.13;;
71106;SDS011;58763;47.982;11.516;2022-11-09T03:43:57;2.33;;;1.15;;
71106;SDS011;58763;47.982;11.516;2022-11-09T03:46:22;2.38;;;0.95;;
71106;SDS011;58763;47.982;11.516;2022-11-09T03:48:48;2.60;;;1.02;;
71106;SDS011;58763;47.982;11.516;2022-11-09T03:51:13;2.85;;;0.85;;
71106;SDS011;58763;47.982;11.516;2022-11-09T03:53:39;2.40;;;0.90;;
71106;SDS011;58763;47.982;11.516;2022-11-09T03:56:04;2.53;;;1.00;;
71106;SDS011;58763;47.982;11.516;2022-11-09T03:58:30;2.30;;;0.80;;
71106;SDS011;58763;47.982;11.516;2022-11-09T04:00:56;2.67;;;0.85;;
71106;SDS011;58763;47.982;11.516;2022-11-09T04:03:21;2.30;;;0.90;;
71106;SDS011;58763;47.982;11.516;2022-11-09T04:05:47;3.22;;;1.10;;
71106;SDS011;58763;47.982;11.516;2022-11-09T04:08:12;2.17;;;0.82;;
71106;SDS011;58763;47.982;11.516;2022-11-09T04:10:38;3.15;;;1.00;;
71106;SDS011;58763;47.982;11.516;2022-11-09T04:13:03;2.65;;;1.10;;
71106;SDS011;58763;47.982;11.516;2022-11-09T04:15:29;2.28;;;1.10;;
71106;SDS011;58763;47.982;11.516;2022-11-09T04:17:55;2.00;;;0.88;;
71106;SDS011;58763;47.982;11.516;2022-11-09T04:20:22;3.53;;;0.93;;
71106;SDS011;58763;47.982;11.516;2022-11-09T04:22:55;3.58;;;0.80;;
71106;SDS011;58763;47.982;11.516;2022-11-09T04:25:22;2.45;;;0.90;;
71106;SDS011;58763;47.982;11.516;2022-11-09T04:27:50;2.50;;;0.80;;
71106;SDS011;58763;47.982;11.516;2022-11-09T04:30:18;1.70;;;0.70;;
71106;SDS011;58763;47.982;11.516;2022-11-09T04:32:44;1.98;;;0.88;;
71106;SDS011;58763;47.982;11.516;2022-11-09T04:35:09;2.08;;;0.80;;
71106;SDS011;58763;47.982;11.516;2022-11-09T04:37:35;2.33;;;0.90;;
71106;SDS011;58763;47.982;11.516;2022-11-09T04:40:00;2.20;;;1.00;;
71106;SDS011;58763;47.982;11.516;2022-11-09T04:42:26;2.42;;;0.88;;
71106;SDS011;58763;47.982;11.516;2022-11-09T04:44:51;2.08;;;0.80;;
71106;SDS011;58763;47.982;11.516;2022-11-09T04:47:17;4.25;;;0.90;;
71106;SDS011;58763;47.982;11.516;2022-11-09T04:49:42;2.67;;;1.10;;
71106;SDS011;58763;47.982;11.516;2022-11-09T04:52:08;3.40;;;0.73;;
71106;SDS011;58763;47.982;11.516;2022-11-09T04:54:33;2.75;;;1.00;;
71106;SDS011;58763;47.982;11.516;2022-11-09T04:56:59;2.83;;;1.10;;
71106;SDS011;58763;47.982;11.516;2022-11-09T04:59:24;2.28;;;0.90;;
71106;SDS011;58763;47.982;11.516;2022-11-09T05:01:50;2.17;;;0.80;;
71106;SDS011;58763;47.982;11.516;2022-11-09T05:04:15;2.30;;;0.90;;
71106;SDS011;58763;47.982;11.516;2022-11-09T05:06:41;4.13;;;1.05;;
71106;SDS011;58763;47.982;11.516;2022-11-09T05:09:06;2.53;;;0.90;;
71106;SDS011;58763;47.982;11.516;2022-11-09T05:11:32;2.45;;;0.90;;
71106;SDS011;58763;47.982;11.516;2022-11-09T05:13:59;1.83;;;0.73;;
71106;SDS011;58763;47.982;11.516;2022-11-09T05:16:26;2.35;;;0.90;;
71106;SDS011;58763;47.982;11.516;2022-11-09T05:18:52;2.60;;;1.10;;
71106;SDS011;58763;47.982;11.516;2022-11-09T05:21:18;2.25;;;1.00;;
71106;SDS011;58763;47.982;11.516;2022-11-09T05:23:44;2.65;;;1.05;;
71106;SDS011;58763;47.982;11.516;2022-11-09T05:26:28;2.70;;;1.00;;
71106;SDS011;58763;47.982;11.516;2022-11-09T05:28:59;3.47;;;1.10;;
71106;SDS011;58763;47.982;11.516;2022-11-09T05:31:26;2.38;;;0.70;;
71106;SDS011;58763;47.982;11.516;2022-11-09T05:33:53;2.47;;;0.98;;
71106;SDS011;58763;47.982;11.516;2022-11-09T05:36:19;1.77;;;0.77;;
71106;SDS011;58763;47.982;11.516;2022-11-09T05:38:46;2.28;;;0.88;;
71106;SDS011;58763;47.982;11.516;2022-11-09T05:41:12;2.33;;;0.70;;
71106;SDS011;58763;47.982;11.516;2022-11-09T05:43:38;3.33;;;0.80;;
71106;SDS011;58763;47.982;11.516;2022-11-09T05:46:04;2.63;;;0.93;;
71106;SDS011;58763;47.982;11.516;2022-11-09T05:48:29;3.10;;;1.08;;
71106;SDS011;58763;47.982;11.516;2022-11-09T05:50:55;5.75;;;1.52;;
71106;SDS011;58763;47.982;11.516;2022-11-09T05:53:25;3.22;;;1.33;;
71106;SDS011;58763;47.982;11.516;2022-11-09T05:55:50;3.95;;;1.10;;
71106;SDS011;58763;47.982;11.516;2022-11-09T05:58:16;2.70;;;0.93;;
71106;SDS011;58763;47.982;11.516;2022-11-09T06:00:42;3.03;;;0.85;;
71106;SDS011;58763;47.982;11.516;2022-11-09T06:03:09;2.42;;;1.00;;
71106;SDS011;58763;47.982;11.516;2022-11-09T06:05:36;1.95;;;0.70;;
71106;SDS011;58763;47.982;11.516;2022-11-09T06:10:29;4.50;;;0.93;;
71106;SDS011;58763;47.982;11.516;2022-11-09T06:12:55;2.53;;;0.85;;
71106;SDS011;58763;47.982;11.516;2022-11-09T06:15:21;1.88;;;0.80;;
71106;SDS011;58763;47.982;11.516;2022-11-09T06:17:50;3.60;;;0.80;;
71106;SDS011;58763;47.982;11.516;2022-11-09T06:20:17;2.53;;;0.93;;
71106;SDS011;58763;47.982;11.516;2022-11-09T06:22:42;1.40;;;0.65;;
71106;SDS011;58763;47.982;11.516;2022-11-09T06:25:08;1.65;;;0.70;;
71106;SDS011;58763;47.982;11.516;2022-11-09T06:27:33;2.53;;;0.90;;
71106;SDS011;58763;47.982;11.516;2022-11-09T06:29:59;2.03;;;0.80;;
71106;SDS011;58763;47.982;11.516;2022-11-09T06:32:24;2.55;;;0.75;;
71106;SDS011;58763;47.982;11.516;2022-11-09T06:34:50;3.40;;;0.90;;
71106;SDS011;58763;47.982;11.516;2022-11-09T06:37:15;2.97;;;0.80;;
71106;SDS011;58763;47.982;11.516;2022-11-09T06:39:43;3.05;;;0.90;;
71106;SDS011;58763;47.982;11.516;2022-11-09T06:42:09;3.58;;;0.93;;
71106;SDS011;58763;47.982;11.516;2022-11-09T06:44:35;2.28;;;1.00;;
71106;SDS011;58763;47.982;11.516;2022-11-09T06:47:00;3.08;;;0.80;;
71106;SDS011;58763;47.982;11.516;2022-11-09T06:49:26;2.90;;;1.00;;
71106;SDS011;58763;47.982;11.516;2022-11-09T06:51:51;3.40;;;0.98;;
71106;SDS011;58763;47.982;11.516;2022-11-09T06:54:17;3.03;;;1.20;;
71106;SDS011;58763;47.982;11.516;2022-11-09T06:56:42;2.15;;;0.90;;
71106;SDS011;58763;47.982;11.516;2022-11-09T06:59:08;2.83;;;1.00;;
71106;SDS011;58763;47.982;11.516;2022-11-09T07:01:34;2.40;;;0.98;;
71106;SDS011;58763;47.982;11.516;2022-11-09T07:04:01;2.33;;;0.80;;
71106;SDS011;58763;47.982;11.516;2022-11-09T07:06:27;2.80;;;0.60;;
71106;SDS011;58763;47.982;11.516;2022-11-09T07:08:56;2.33;;;0.75;;
71106;SDS011;58763;47.982;11.516;2022-11-09T07:11:22;3.58;;;1.20;;
71106;SDS011;58763;47.982;11.516;2022-11-09T07:13:48;2.92;;;0.82;;
71106;SDS011;58763;47.982;11.516;2022-11-09T07:16:13;2.42;;;0.80;;
71106;SDS011;58763;47.982;11.516;2022-11-09T07:18:42;4.50;;;1.35;;
71106;SDS011;58763;47.982;11.516;2022-11-09T07:21:08;3.13;;;1.02;;
71106;SDS011;58763;47.982;11.516;2022-11-09T07:23:34;3.78;;;1.17;;
71106;SDS011;58763;47.982;11.516;2022-11-09T07:25:59;2.50;;;1.05;;
71106;SDS011;58763;47.982;11.516;2022-11-09T07:28:25;2.55;;;1.02;;
71106;SDS011;58763;47.982;11.516;2022-11-09T07:30:51;2.85;;;0.90;;
71106;SDS011;58763;47.982;11.516;2022-11-09T07:33:17;3.30;;;0.85;;
71106;SDS011;58763;47.982;11.516;2022-11-09T07:35:44;4.85;;;0.82;;
71106;SDS011;58763;47.982;11.516;2022-11-09T07:38:10;4.93;;;1.00;;
71106;SDS011;58763;47.982;11.516;2022-11-09T07:40:37;2.42;;;0.98;;
71106;SDS011;58763;47.982;11.516;2022-11-09T07:43:03;2.28;;;1.00;;
71106;SDS011;58763;47.982;11.516;2022-11-09T07:45:30;5.20;;;1.63;;
71106;SDS011;58763;47.982;11.516;2022-11-09T07:47:58;3.30;;;1.20;;
71106;SDS011;58763;47.982;11.516;2022-11-09T07:50:26;4.13;;;1.20;;
71106;SDS011;58763;47.982;11.516;2022-11-09T07:52:53;5.70;;;1.70;;
71106;SDS011;58763;47.982;11.516;2022-11-09T07:55:20;2.00;;;1.02;;
71106;SDS011;58763;47.982;11.516;2022-11-09T07:57:46;2.58;;;1.10;;
71106;SDS011;58763;47.982;11.516;2022-11-09T08:00:12;5.45;;;1.40;;
71106;SDS011;58763;47.982;11.516;2022-11-09T08:02:38;3.55;;;1.45;;
71106;SDS011;58763;47.982;11.516;2022-11-09T08:05:04;3.95;;;1.40;;
71106;SDS011;58763;47.982;11.516;2022-11-09T08:07:30;3.22;;;1.50;;
71106;SDS011;58763;47.982;11.516;2022-11-09T08:09:57;4.70;;;1.30;;
71106;SDS011;58763;47.982;11.516;2022-11-09T08:12:23;4.07;;;1.20;;
71106;SDS011;58763;47.982;11.516;2022-11-09T08:14:48;3.03;;;1.27;;
71106;SDS011;58763;47.982;11.516;2022-11-09T08:17:14;2.67;;;1.05;;
71106;SDS011;58763;47.982;11.516;2022-11-09T08:19:39;3.20;;;1.02;;
71106;SDS011;58763;47.982;11.516;2022-11-09T08:22:05;2.55;;;0.93;;
71106;SDS011;58763;47.982;11.516;2022-11-09T08:24:31;2.83;;;1.00;;
71106;SDS011;58763;47.982;11.516;2022-11-09T08:26:56;3.10;;;0.90;;
71106;SDS011;58763;47.982;11.516;2022-11-09T08:29:21;2.47;;;0.90;;
71106;SDS011;58763;47.982;11.516;2022-11-09T08:31:50;3.60;;;0.90;;
71106;SDS011;58763;47.982;11.516;2022-11-09T08:34:16;2.05;;;0.70;;
71106;SDS011;58763;47.982;11.516;2022-11-09T08:36:42;2.25;;;0.85;;
71106;SDS011;58763;47.982;11.516;2022-11-09T08:39:08;4.18;;;0.80;;
71106;SDS011;58763;47.982;11.516;2022-11-09T08:41:34;2.15;;;0.80;;
71106;SDS011;58763;47.982;11.516;2022-11-09T08:44:00;2.53;;;0.95;;
71106;SDS011;58763;47.982;11.516;2022-11-09T08:46:26;2.00;;;0.80;;
71106;SDS011;58763;47.982;11.516;2022-11-09T08:48:52;2.33;;;0.93;;
71106;SDS011;58763;47.982;11.516;2022-11-09T08:51:17;3.30;;;1.17;;
71106;SDS011;58763;47.982;11.516;2022-11-09T08:53:43;4.40;;;1.02;;
71106;SDS011;58763;47.982;11.516;2022-11-09T08:56:08;2.65;;;1.10;;
71106;SDS011;58763;47.982;11.516;2022-11-09T08:58:36;3.90;;;1.10;;
71106;SDS011;58763;47.982;11.516;2022-11-09T09:01:05;3.72;;;0.90;;
71106;SDS011;58763;47.982;11.516;2022-11-09T09:03:31;3.15;;;1.20;;
71106;SDS011;58763;47.982;11.516;2022-11-09T09:05:56;2.42;;;1.02;;
71106;SDS011;58763;47.982;11.516;2022-11-09T09:08:22;3.97;;;1.42;;
71106;SDS011;58763;47.982;11.516;2022-11-09T09:10:49;3.28;;;1.30;;
71106;SDS011;58763;47.982;11.516;2022-11-09T09:13:15;4.97;;;1.23;;
71106;SDS011;58763;47.982;11.516;2022-11-09T09:15:40;2.90;;;1.13;;
71106;SDS011;58763;47.982;11.516;2022-11-09T09:18:06;3.97;;;1.30;;
71106;SDS011;58763;47.982;11.516;2022-11-09T09:20:31;2.72;;;1.20;;
71106;SDS011;58763;47.982;11.516;2022-11-09T09:22:58;2.92;;;1.20;;
71106;SDS011;58763;47.982;11.516;2022-11-09T09:25:24;3.13;;;1.20;;
71106;SDS011;58763;47.982;11.516;2022-11-09T09:27:51;3.38;;;1.40;;
71106;SDS011;58763;47.982;11.516;2022-11-09T09:30:16;3.63;;;1.23;;
71106;SDS011;58763;47.982;11.516;2022-11-09T09:32:42;3.00;;;0.90;;
71106;SDS011;58763;47.982;11.516;2022-11-09T09:35:07;3.58;;;1.30;;
71106;SDS011;58763;47.982;11.516;2022-11-09T09:37:33;4.78;;;1.48;;
71106;SDS011;58763;47.982;11.516;2022-11-09T09:39:59;3.58;;;1.42;;
71106;SDS011;58763;47.982;11.516;2022-11-09T09:42:35;4.97;;;1.10;;
71106;SDS011;58763;47.982;11.516;2022-11-09T09:50:11;2.78;;;1.00;;
71106;SDS011;58763;47.982;11.516;2022-11-09T09:52:48;2.17;;;1.00;;
71106;SDS011;58763;47.982;11.516;2022-11-09T09:58:03;2.65;;;0.93;;
71106;SDS011;58763;47.982;11.516;2022-11-09T10:00:36;3.13;;;1.05;;
71106;SDS011;58763;47.982;11.516;2022-11-09T10:03:04;3.67;;;1.00;;
71106;SDS011;58763;47.982;11.516;2022-11-09T10:05:40;3.67;;;1.10;;
71106;SDS011;58763;47.982;11.516;2022-11-09T10:16:32;4.43;;;0.77;;
71106;SDS011;58763;47.982;11.516;2022-11-09T10:19:12;4.15;;;0.93;;
71106;SDS011;58763;47.982;11.516;2022-11-09T10:27:32;2.17;;;0.80;;
71106;SDS011;58763;47.982;11.516;2022-11-09T10:30:00;4.28;;;0.90;;
71106;SDS011;58763;47.982;11.516;2022-11-09T10:32:30;2.90;;;0.82;;
71106;SDS011;58763;47.982;11.516;2022-11-09T10:37:40;2.95;;;0.88;;
71106;SDS011;58763;47.982;11.516;2022-11-09T10:40:54;5.45;;;1.08;;
71106;SDS011;58763;47.982;11.516;2022-11-09T10:43:10;1.63;;;0.77;;
71106;SDS011;58763;47.982;11.516;2022-11-09T10:45:38;1.92;;;0.70;;
71106;SDS011;58763;47.982;11.516;2022-11-09T10:48:06;1.67;;;0.63;;
71106;SDS011;58763;47.982;11.516;2022-11-09T10:50:40;2.47;;;0.90;;
71106;SDS011;58763;47.982;11.516;2022-11-09T10:53:16;3.25;;;1.02;;
71106;SDS011;58763;47.982;11.516;2022-11-09T10:56:14;2.85;;;0.80;;
71106;SDS011;58763;47.982;11.516;2022-11-09T10:58:49;1.13;;;0.50;;
71106;SDS011;58763;47.982;11.516;2022-11-09T11:01:18;3.00;;;0.90;;
71106;SDS011;58763;47.982;11.516;2022-11-09T11:03:53;4.43;;;0.70;;
71106;SDS011;58763;47.982;11.516;2022-11-09T11:08:51;2.75;;;0.70;;
71106;SDS011;58763;47.982;11.516;2022-11-09T11:14:12;2.20;;;0.50;;
71106;SDS011;58763;47.982;11.516;2022-11-09T11:16:40;2.58;;;0.77;;
71106;SDS011;58763;47.982;11.516;2022-11-09T11:27:27;2.75;;;0.80;;
71106;SDS011;58763;47.982;11.516;2022-11-09T11:32:59;1.98;;;0.70;;
71106;SDS011;58763;47.982;11.516;2022-11-09T11:35:38;2.10;;;0.60;;
71106;SDS011;58763;47.982;11.516;2022-11-09T11:46:40;2.03;;;0.80;;
71106;SDS011;58763;47.982;11.516;2022-11-09T11:52:03;2.22;;;0.63;;
71106;SDS011;58763;47.982;11.516;2022-11-09T11:54:55;2.30;;;0.73;;
71106;SDS011;58763;47.982;11.516;2022-11-09T12:00:40;1.63;;;0.60;;
71106;SDS011;58763;47.982;11.516;2022-11-09T12:06:57;2.53;;;0.80;;
71106;SDS011;58763;47.982;11.516;2022-11-09T12:09:30;2.92;;;0.90;;
71106;SDS011;58763;47.982;11.516;2022-11-09T12:14:59;1.60;;;0.60;;
71106;SDS011;58763;47.982;11.516;2022-11-09T12:17:44;2.70;;;0.80;;
71106;SDS011;58763;47.982;11.516;2022-11-09T12:20:15;3.03;;;0.90;;
71106;SDS011;58763;47.982;11.516;2022-11-09T12:23:01;2.70;;;0.77;;
71106;SDS011;58763;47.982;11.516;2022-11-09T12:34:31;2.03;;;0.77;;
71106;SDS011;58763;47.982;11.516;2022-11-09T12:37:02;3.80;;;0.93;;
71106;SDS011;58763;47.982;11.516;2022-11-09T12:39:39;2.17;;;0.70;;
71106;SDS011;58763;47.982;11.516;2022-11-09T12:42:11;3.25;;;0.70;;
71106;SDS011;58763;47.982;11.516;2022-11-09T12:44:45;3.00;;;0.73;;
71106;SDS011;58763;47.982;11.516;2022-11-09T12:47:21;2.28;;;0.70;;
71106;SDS011;58763;47.982;11.516;2022-11-09T12:49:53;2.33;;;0.70;;
71106;SDS011;58763;47.982;11.516;2022-11-09T12:52:20;2.42;;;0.93;;
71106;SDS011;58763;47.982;11.516;2022-11-09T12:54:51;2.83;;;0.90;;
71106;SDS011;58763;47.982;11.516;2022-11-09T12:57:25;3.00;;;0.75;;
71106;SDS011;58763;47.982;11.516;2022-11-09T12:59:53;2.78;;;0.95;;
71106;SDS011;58763;47.982;11.516;2022-11-09T13:04:53;3.40;;;0.80;;
71106;SDS011;58763;47.982;11.516;2022-11-09T13:10:32;3.03;;;0.80;;
71106;SDS011;58763;47.982;11.516;2022-11-09T13:16:01;3.17;;;1.00;;
71106;SDS011;58763;47.982;11.516;2022-11-09T13:18:25;2.95;;;0.95;;
71106;SDS011;58763;47.982;11.516;2022-11-09T13:21:31;2.80;;;0.77;;
71106;SDS011;58763;47.982;11.516;2022-11-09T13:23:58;1.77;;;0.80;;
71106;SDS011;58763;47.982;11.516;2022-11-09T13:26:59;2.28;;;0.88;;
71106;SDS011;58763;47.982;11.516;2022-11-09T13:29:29;3.47;;;1.08;;
71106;SDS011;58763;47.982;11.516;2022-11-09T13:43:02;2.63;;;0.68;;
71106;SDS011;58763;47.982;11.516;2022-11-09T13:45:34;4.43;;;0.80;;
71106;SDS011;58763;47.982;11.516;2022-11-09T13:54:31;2.15;;;0.70;;
71106;SDS011;58763;47.982;11.516;2022-11-09T13:57:08;1.88;;;0.50;;
71106;SDS011;58763;47.982;11.516;2022-11-09T13:59:39;1.88;;;0.73;;
71106;SDS011;58763;47.982;11.516;2022-11-09T14:02:21;1.50;;;0.60;;
71106;SDS011;58763;47.982;11.516;2022-11-09T14:04:48;4.05;;;0.80;;
71106;SDS011;58763;47.982;11.516;2022-11-09T14:07:17;4.88;;;0.80;;
71106;SDS011;58763;47.982;11.516;2022-11-09T14:21:26;1.95;;;0.80;;
71106;SDS011;58763;47.982;11.516;2022-11-09T14:23:54;4.30;;;0.80;;
71106;SDS011;58763;47.982;11.516;2022-11-09T14:29:49;3.13;;;0.70;;
71106;SDS011;58763;47.982;11.516;2022-11-09T14:35:07;2.90;;;0.82;;
71106;SDS011;58763;47.982;11.516;2022-11-09T14:37:42;3.10;;;0.88;;
71106;SDS011;58763;47.982;11.516;2022-11-09T14:40:20;1.75;;;0.60;;
71106;SDS011;58763;47.982;11.516;2022-11-09T14:42:59;5.00;;;0.70;;
71106;SDS011;58763;47.982;11.516;2022-11-09T14:45:27;2.90;;;0.70;;
71106;SDS011;58763;47.982;11.516;2022-11-09T14:47:54;3.10;;;0.80;;
71106;SDS011;58763;47.982;11.516;2022-11-09T14:50:26;1.88;;;0.70;;
71106;SDS011;58763;47.982;11.516;2022-11-09T14:52:54;3.22;;;0.90;;
71106;SDS011;58763;47.982;11.516;2022-11-09T14:55:21;2.03;;;0.57;;
71106;SDS011;58763;47.982;11.516;2022-11-09T14:57:48;2.05;;;0.73;;
71106;SDS011;58763;47.982;11.516;2022-11-09T15:02:49;4.00;;;1.20;;
71106;SDS011;58763;47.982;11.516;2022-11-09T15:07:52;3.65;;;0.65;;
71106;SDS011;58763;47.982;11.516;2022-11-09T15:10:18;3.33;;;0.90;;
71106;SDS011;58763;47.982;11.516;2022-11-09T15:12:48;2.58;;;0.90;;
71106;SDS011;58763;47.982;11.516;2022-11-09T15:15:17;1.88;;;0.77;;
71106;SDS011;58763;47.982;11.516;2022-11-09T15:17:45;4.03;;;0.82;;
71106;SDS011;58763;47.982;11.516;2022-11-09T15:22:50;3.42;;;0.73;;
71106;SDS011;58763;47.982;11.516;2022-11-09T15:25:26;4.00;;;0.80;;
71106;SDS011;58763;47.982;11.516;2022-11-09T15:35:58;1.83;;;0.68;;
71106;SDS011;58763;47.982;11.516;2022-11-09T15:40:53;5.68;;;1.13;;
71106;SDS011;58763;47.982;11.516;2022-11-09T15:43:19;6.20;;;1.10;;
71106;SDS011;58763;47.982;11.516;2022-11-09T15:45:45;2.38;;;0.60;;
71106;SDS011;58763;47.982;11.516;2022-11-09T15:48:10;2.33;;;0.70;;
71106;SDS011;58763;47.982;11.516;2022-11-09T15:50:36;3.58;;;0.85;;
71106;SDS011;58763;47.982;11.516;2022-11-09T15:53:02;3.75;;;0.80;;
71106;SDS011;58763;47.982;11.516;2022-11-09T15:55:28;3.17;;;0.80;;
71106;SDS011;58763;47.982;11.516;2022-11-09T15:57:53;4.30;;;1.00;;
71106;SDS011;58763;47.982;11.516;2022-11-09T16:00:20;6.25;;;2.88;;
71106;SDS011;58763;47.982;11.516;2022-11-09T16:02:46;15.98;;;8.45;;
71106;SDS011;58763;47.982;11.516;2022-11-09T16:05:13;11.02;;;5.05;;
71106;SDS011;58763;47.982;11.516;2022-11-09T16:07:48;8.18;;;4.05;;
71106;SDS011;58763;47.982;11.516;2022-11-09T16:10:15;13.10;;;5.93;;
71106;SDS011;58763;47.982;11.516;2022-11-09T16:12:44;34.53;;;17.50;;
71106;SDS011;58763;47.982;11.516;2022-11-09T16:15:11;42.95;;;22.52;;
71106;SDS011;58763;47.982;11.516;2022-11-09T16:17:37;31.73;;;17.17;;
71106;SDS011;58763;47.982;11.516;2022-11-09T16:20:03;24.85;;;12.88;;
71106;SDS011;58763;47.982;11.516;2022-11-09T16:22:29;20.60;;;10.23;;
71106;SDS011;58763;47.982;11.516;2022-11-09T16:24:57;28.58;;;14.25;;
71106;SDS011;58763;47.982;11.516;2022-11-09T16:27:23;34.33;;;19.17;;
71106;SDS011;58763;47.982;11.516;2022-11-09T16:29:49;29.27;;;17.27;;
71106;SDS011;58763;47.982;11.516;2022-11-09T16:32:15;25.65;;;15.00;;
71106;SDS011;58763;47.982;11.516;2022-11-09T16:34:40;26.17;;;14.00;;
71106;SDS011;58763;47.982;11.516;2022-11-09T16:37:06;26.90;;;13.40;;
71106;SDS011;58763;47.982;11.516;2022-11-09T16:39:32;18.27;;;9.45;;
71106;SDS011;58763;47.982;11.516;2022-11-09T16:42:00;10.52;;;5.35;;
71106;SDS011;58763;47.982;11.516;2022-11-09T16:44:30;10.27;;;5.53;;
71106;SDS011;58763;47.982;11.516;2022-11-09T16:46:58;9.23;;;4.75;;
71106;SDS011;58763;47.982;11.516;2022-11-09T16:49:27;13.52;;;4.32;;
71106;SDS011;58763;47.982;11.516;2022-11-09T16:51:53;9.73;;;5.55;;
71106;SDS011;58763;47.982;11.516;2022-11-09T16:54:18;15.25;;;9.38;;
71106;SDS011;58763;47.982;11.516;2022-11-09T16:56:44;12.48;;;6.38;;
71106;SDS011;58763;47.982;11.516;2022-11-09T16:59:11;8.07;;;4.63;;